KHNB/HNB METAR and TAF weather

Enter ICAO airport designator
Station Type Date Time Source
KHNB METAR 2020/09/20 09:56 UTC NOAA

KHNB 200956Z AUTO 02003KT 10SM CLR 08/07 A3031 RMK AO2 SLP264 T00780072


Station Type Date Time Source
KHNB Decoded METAR 2020/09/20 09:56 UTC NOAA

Huntingburg, IN, United States (KHNB) 38-15N 086-57W
Sep 20, 2020 - 05:56 AM EDT / 2020.09.20 0956 UTC
Wind: from the NNE (020 degrees) at 3 MPH (3 KT):0
Visibility: 10 mile(s):0
Sky conditions: clear
Temperature: 46.0 F (7.8 C)
Dew Point: 45.0 F (7.2 C)
Relative Humidity: 95%
Pressure (altimeter): 30.31 in. Hg (1026 hPa)
ob: KHNB 200956Z AUTO 02003KT 10SM CLR 08/07 A3031 RMK AO2 SLP264 T00780072
cycle: 10

Station Type Date Time Source
KHNB TAF 2020/09/20 06:21 UTC NOAA

TAF KHNB 200520Z 2006/2106 00000KT P6SM SKC
TEMPO 2009/2012 4SM BR
FM201500 08008KT P6SM SKC
FM210000 07004KT P6SM SKC

Example: see airport list